Time;durP1;ratioP1;P1;durP2;ratioP2;P2;SDS_P1;SDS_P2;PMS_P1;PMS_P2;Temp;Humidity;BMP_temperature;BMP_pressure;BME280_temperature;BME280_humidity;BME280_pressure;Samples;Min_cycle;Max_cycle;Signal;HPM_P1;HPM_P2
2022/05/14 00:01:50;;;;;;;6.77;4.80;;;;;;;17.18;100.00;62639.66;5091643;28;20199;-73
2022/05/14 00:04:18;;;;;;;6.17;4.87;;;;;;;17.08;100.00;62631.44;5091951;28;20260;-73
2022/05/14 00:06:47;;;;;;;6.20;4.83;;;;;;;17.12;100.00;62635.75;5092050;28;20225;-74
2022/05/14 00:09:14;;;;;;;8.00;5.20;;;;;;;17.16;100.00;62640.06;5091648;28;20716;-74
2022/05/14 00:14:26;;;;;;;11.00;5.27;;;;;;;16.82;100.00;62603.94;5092003;28;20272;-75
2022/05/14 00:16:53;;;;;;;8.23;4.93;;;;;;;17.00;100.00;62617.13;5091822;28;20240;-74
2022/05/14 00:19:20;;;;;;;8.47;5.40;;;;;;;15.68;100.00;62484.22;5091708;28;20192;-76
2022/05/14 00:21:47;;;;;;;6.10;5.20;;;;;;;16.44;100.00;62562.44;5091612;28;20329;-73
2022/05/14 00:24:16;;;;;;;6.13;5.20;;;;;;;17.10;100.00;62633.06;5091596;28;20253;-76
2022/05/14 00:26:43;;;;;;;9.37;5.50;;;;;;;17.13;100.00;62631.66;5091066;28;20209;-74
2022/05/14 00:29:10;;;;;;;6.50;5.30;;;;;;;17.01;100.00;62623.88;5091336;28;20646;-74
2022/05/14 00:31:38;;;;;;;9.67;5.40;;;;;;;17.00;100.00;62619.69;5091442;28;20199;-74
2022/05/14 00:34:05;;;;;;;8.67;5.57;;;;;;;16.45;100.00;62561.47;5087425;28;20212;-75
2022/05/14 00:36:33;;;;;;;9.50;5.60;;;;;;;16.69;100.00;62589.38;5092687;28;20215;-75
2022/05/14 00:39:00;;;;;;;7.97;5.73;;;;;;;16.63;100.00;62580.34;5095654;28;20231;-75
2022/05/14 00:41:28;;;;;;;17.87;6.33;;;;;;;16.63;100.00;62582.91;5095913;28;20203;-73
2022/05/14 00:43:57;;;;;;;5.93;5.33;;;;;;;16.71;100.00;62586.41;5095325;28;20199;-74
2022/05/14 00:46:27;;;;;;;8.00;5.20;;;;;;;16.72;100.00;62587.50;5095457;28;20195;-74
2022/05/14 00:48:58;;;;;;;7.37;5.67;;;;;;;16.50;100.00;62566.88;5095340;28;20654;-74
2022/05/14 00:51:28;;;;;;;9.50;5.53;;;;;;;16.62;100.00;62579.28;5095592;28;20195;-74
2022/05/14 00:54:00;;;;;;;11.37;6.00;;;;;;;16.63;100.00;62578.31;5095980;28;20200;-74
2022/05/14 00:56:33;;;;;;;6.37;5.77;;;;;;;16.73;100.00;62591.13;5095538;28;20754;-73
2022/05/14 00:59:06;;;;;;;12.27;5.77;;;;;;;16.77;100.00;62598.00;5095954;28;20199;-73
2022/05/14 01:01:35;;;;;;;10.43;5.90;;;;;;;16.58;100.00;62574.97;5095456;28;20298;-73
2022/05/14 01:04:04;;;;;;;7.20;5.70;;;;;;;16.74;100.00;62589.63;5095174;28;20257;-74
2022/05/14 01:06:32;;;;;;;7.77;5.60;;;;;;;16.22;100.00;62536.69;5077029;28;20210;-74
2022/05/14 01:08:59;;;;;;;9.00;5.80;;;;;;;16.25;100.00;62539.38;5094853;28;20192;-75
2022/05/14 01:11:26;;;;;;;8.27;5.70;;;;;;;15.96;100.00;62506.66;5094978;28;20202;-74
2022/05/14 01:13:53;;;;;;;6.00;5.40;;;;;;;16.20;100.00;62534.53;5094672;28;20195;-74
2022/05/14 01:16:21;;;;;;;7.07;5.70;;;;;;;16.14;100.00;62530.63;5094856;28;20222;-76
2022/05/14 01:18:48;;;;;;;8.33;5.57;;;;;;;16.16;100.00;62527.13;5094756;28;20248;-74
2022/05/14 01:21:29;;;;;;;8.83;6.23;;;;;;;15.89;100.00;62503.72;5094693;28;20196;-74
2022/05/14 01:26:51;;;;;;;8.30;6.10;;;;;;;16.12;100.00;62520.25;5094883;28;20207;-74
2022/05/14 01:29:20;;;;;;;12.10;6.10;;;;;;;16.11;100.00;62524.31;5096605;28;20241;-75
2022/05/14 01:31:49;;;;;;;14.73;6.60;;;;;;;15.65;100.00;62475.31;5099368;28;20257;-72
2022/05/14 01:34:17;;;;;;;15.03;8.90;;;;;;;16.02;100.00;62517.72;5095187;28;20195;-73
2022/05/14 01:36:45;;;;;;;11.10;7.30;;;;;;;16.05;100.00;62520.97;5094479;28;20281;-74
2022/05/14 01:39:14;;;;;;;10.07;7.33;;;;;;;16.02;100.00;62518.25;5094641;28;20257;-73
2022/05/14 01:41:41;;;;;;;11.33;6.30;;;;;;;16.01;100.00;62514.63;5094255;28;20608;-75
2022/05/14 01:44:09;;;;;;;6.47;5.80;;;;;;;16.10;100.00;62518.09;5094286;28;20196;-75
2022/05/14 01:46:37;;;;;;;10.90;6.97;;;;;;;16.02;100.00;62517.72;5093934;28;20256;-74
2022/05/14 01:49:04;;;;;;;8.67;6.10;;;;;;;16.04;100.00;62517.84;5094487;28;20203;-74
2022/05/14 01:51:32;;;;;;;7.60;5.90;;;;;;;16.06;100.00;62522.56;5094828;28;20355;-73
2022/05/14 01:53:58;;;;;;;7.50;6.50;;;;;;;15.99;100.00;62512.47;5094880;28;20252;-74
2022/05/14 01:56:26;;;;;;;10.37;6.60;;;;;;;15.67;100.00;62475.44;5094183;28;20204;-74
2022/05/14 01:58:52;;;;;;;11.53;6.20;;;;;;;15.79;100.00;62493.50;5093910;28;20208;-74
2022/05/14 02:01:23;;;;;;;7.67;6.27;;;;;;;15.60;100.00;62473.03;5094097;28;20196;-74
2022/05/14 02:03:53;;;;;;;7.37;6.00;;;;;;;15.58;100.00;62465.75;5094169;28;20257;-75
2022/05/14 02:06:21;;;;;;;8.10;6.20;;;;;;;15.62;100.00;62470.03;5094302;28;20204;-74
2022/05/14 02:08:49;;;;;;;7.23;6.50;;;;;;;15.49;100.00;62458.63;5093843;28;20225;-74
2022/05/14 02:11:17;;;;;;;8.83;6.20;;;;;;;15.46;100.00;62457.41;5093864;28;20731;-75
2022/05/14 02:13:46;;;;;;;7.80;6.40;;;;;;;15.57;100.00;62469.81;5093744;28;20199;-73
2022/05/14 02:16:14;;;;;;;8.13;6.07;;;;;;;15.40;100.00;62451.47;5094003;28;20203;-75
2022/05/14 02:18:46;;;;;;;7.83;6.43;;;;;;;15.35;100.00;62440.97;5093517;28;20245;-75
2022/05/14 02:21:13;;;;;;;12.77;6.77;;;;;;;15.50;100.00;62457.13;5093911;28;20196;-73
2022/05/14 02:23:40;;;;;;;6.53;5.93;;;;;;;15.40;100.00;62451.47;5093499;28;20253;-73
2022/05/14 02:26:12;;;;;;;8.47;6.17;;;;;;;15.39;100.00;62445.28;5093758;28;20203;-76
2022/05/14 02:28:40;;;;;;;7.73;6.10;;;;;;;15.35;100.00;62446.09;5093356;28;20196;-75
2022/05/14 02:31:08;;;;;;;6.80;6.10;;;;;;;15.06;100.00;62407.72;5093653;28;20264;-74
2022/05/14 02:33:34;;;;;;;10.87;6.30;;;;;;;15.40;100.00;62443.78;5093373;28;20561;-76
2022/05/14 02:36:08;;;;;;;8.77;6.20;;;;;;;14.89;100.00;62391.47;5093327;28;20257;-73
2022/05/14 02:38:36;;;;;;;7.63;6.17;;;;;;;15.13;100.00;62425.00;5093567;28;20692;-73
2022/05/14 02:41:04;;;;;;;6.70;5.90;;;;;;;15.22;100.00;62426.97;5093531;28;20203;-74
2022/05/14 02:43:33;;;;;;;7.67;5.80;;;;;;;15.11;100.00;62417.72;5093163;28;20264;-74
2022/05/14 02:46:00;;;;;;;9.27;5.83;;;;;;;15.06;100.00;62409.75;5093299;28;20278;-74
2022/05/14 02:48:31;;;;;;;15.37;6.30;;;;;;;15.05;100.00;62411.78;5092996;28;20191;-74
2022/05/14 02:50:58;;;;;;;10.13;6.00;;;;;;;15.01;100.00;62406.94;5093113;28;20282;-74
2022/05/14 02:53:27;;;;;;;9.77;5.93;;;;;;;15.05;100.00;62411.25;5092898;28;20207;-74
2022/05/14 02:55:54;;;;;;;8.13;6.03;;;;;;;15.07;100.00;62415.97;5093094;28;20199;-74
2022/05/14 03:01:03;;;;;;;8.10;6.70;;;;;;;14.06;100.00;62305.84;5091968;28;20663;-73
2022/05/14 03:03:30;;;;;;;7.57;6.53;;;;;;;14.96;100.00;62396.97;5092775;28;20199;-75
2022/05/14 03:05:57;;;;;;;8.53;5.87;;;;;;;14.97;100.00;62400.09;5092754;28;20200;-74
2022/05/14 03:08:27;;;;;;;10.13;6.33;;;;;;;15.00;100.00;62405.88;5092744;28;20562;-75
2022/05/14 03:10:55;;;;;;;8.67;6.73;;;;;;;15.08;100.00;62422.16;5093030;28;20195;-74
2022/05/14 03:13:24;;;;;;;9.53;6.30;;;;;;;15.10;100.00;62414.59;5092805;28;20195;-75
2022/05/14 03:15:51;;;;;;;11.77;6.57;;;;;;;14.16;100.00;62314.03;5092234;28;20199;-75
2022/05/14 03:18:19;;;;;;;7.63;5.90;;;;;;;15.12;100.00;62421.34;5092462;28;20227;-74
2022/05/14 03:20:46;;;;;;;6.90;5.70;;;;;;;15.11;100.00;62420.78;5092316;28;20199;-73
2022/05/14 03:23:13;;;;;;;10.23;6.33;;;;;;;14.68;100.00;62374.53;5092587;28;20257;-73
2022/05/14 03:25:41;;;;;;;10.33;6.47;;;;;;;14.56;100.00;62353.41;5092015;28;20203;-74
2022/05/14 03:28:10;;;;;;;8.57;6.33;;;;;;;14.95;100.00;62400.50;5092283;28;20633;-74
2022/05/14 03:30:37;;;;;;;10.90;6.47;;;;;;;14.99;100.00;62404.78;5092063;28;20215;-73
2022/05/14 03:33:04;;;;;;;9.73;6.43;;;;;;;14.64;100.00;62367.69;5092187;28;20596;-73
2022/05/14 03:35:31;;;;;;;10.33;7.10;;;;;;;15.01;100.00;62404.38;5092710;28;20231;-75
2022/05/14 03:38:00;;;;;;;12.07;6.67;;;;;;;14.97;100.00;62405.22;5092008;28;20378;-74
2022/05/14 03:40:28;;;;;;;10.00;6.27;;;;;;;15.00;100.00;62408.97;5091743;28;20261;-75
2022/05/14 03:42:56;;;;;;;9.77;6.60;;;;;;;15.13;100.00;62419.88;5091972;28;20195;-74
2022/05/14 03:45:23;;;;;;;7.27;6.47;;;;;;;15.01;100.00;62404.38;5092048;28;20200;-74
2022/05/14 03:47:50;;;;;;;13.23;7.60;;;;;;;14.98;100.00;62398.59;5092151;28;20254;-74
2022/05/14 03:50:18;;;;;;;10.00;6.83;;;;;;;15.09;100.00;62415.56;5092300;28;20636;-74
2022/05/14 03:52:45;;;;;;;9.67;7.37;;;;;;;14.99;100.00;62409.94;5092085;28;20362;-73
2022/05/14 03:55:12;;;;;;;12.40;6.83;;;;;;;15.04;100.00;62412.72;5092074;28;20204;-73
2022/05/14 03:57:39;;;;;;;9.93;7.70;;;;;;;15.08;100.00;62411.91;5093052;28;20223;-75
2022/05/14 04:00:11;;;;;;;8.70;6.87;;;;;;;15.10;100.00;62414.06;5091904;28;20250;-75
2022/05/14 04:02:38;;;;;;;8.03;6.97;;;;;;;15.18;100.00;62425.78;5091993;28;20195;-74
2022/05/14 04:05:05;;;;;;;14.33;6.90;;;;;;;15.14;100.00;62420.94;5091615;28;20202;-74
2022/05/14 04:07:32;;;;;;;9.80;6.67;;;;;;;15.11;100.00;62420.28;5092143;28;20204;-74
2022/05/14 04:09:59;;;;;;;12.30;7.13;;;;;;;15.02;100.00;62408.00;5090966;28;20249;-73
2022/05/14 04:12:27;;;;;;;7.83;7.00;;;;;;;15.09;100.00;62405.28;5091621;28;20199;-74
2022/05/14 04:14:54;;;;;;;8.53;7.27;;;;;;;15.07;100.00;62415.97;5091721;28;20581;-74
2022/05/14 04:17:22;;;;;;;8.90;7.03;;;;;;;15.10;100.00;62419.19;5091592;28;20276;-74
2022/05/14 04:19:50;;;;;;;8.43;6.57;;;;;;;14.96;100.00;62401.56;5091761;28;20256;-73
2022/05/14 04:22:17;;;;;;;7.23;6.27;;;;;;;15.12;100.00;62416.75;5091849;28;20199;-74
2022/05/14 04:24:45;;;;;;;10.40;6.80;;;;;;;14.86;100.00;62391.34;5091642;28;20191;-75
2022/05/14 04:27:13;;;;;;;10.93;7.20;;;;;;;15.14;100.00;62418.38;5091905;28;20200;-75
2022/05/14 04:29:43;;;;;;;15.30;6.90;;;;;;;15.04;100.00;62410.72;5092160;28;20588;-75
2022/05/14 04:32:11;;;;;;;8.53;6.33;;;;;;;15.26;100.00;62431.28;5074555;28;20206;-73
2022/05/14 04:34:40;;;;;;;12.27;7.10;;;;;;;15.36;100.00;62444.59;5091824;28;20231;-73
2022/05/14 04:37:08;;;;;;;11.43;7.33;;;;;;;15.66;100.00;62478.94;5091678;28;20263;-73
2022/05/14 04:39:37;;;;;;;18.67;9.70;;;;;;;15.88;100.00;62498.03;5091594;28;20827;-73
2022/05/14 04:42:07;;;;;;;18.30;8.90;;;;;;;15.98;100.00;62503.66;5091542;28;20204;-73
2022/05/14 04:44:37;;;;;;;19.83;9.30;;;;;;;16.47;100.00;62560.50;5091639;28;20200;-74
2022/05/14 04:47:06;;;;;;;15.23;8.87;;;;;;;16.62;100.00;62581.84;5091882;28;20249;-75
2022/05/14 04:49:40;;;;;;;20.87;9.53;;;;;;;16.54;100.00;62570.66;5091347;28;20197;-74
2022/05/14 04:52:08;;;;;;;16.67;8.40;;;;;;;16.68;100.00;62583.69;5091406;28;20200;-75
2022/05/14 04:54:36;;;;;;;12.13;7.87;;;;;;;16.76;100.00;62596.94;5091623;28;20261;-73
2022/05/14 04:57:03;;;;;;;14.07;8.43;;;;;;;16.99;100.00;62616.03;5091423;28;20640;-74
2022/05/14 04:59:30;;;;;;;17.37;6.80;;;;;;;16.60;100.00;62579.69;5091485;28;20666;-75
2022/05/14 05:04:43;;;;;;;12.43;7.13;;;;;;;16.28;100.00;62545.19;5091302;28;20261;-74
2022/05/14 05:07:10;;;;;;;13.10;7.50;;;;;;;16.32;100.00;62550.03;5091220;28;20196;-74
2022/05/14 05:09:38;;;;;;;13.77;6.97;;;;;;;16.12;100.00;62528.47;5091341;28;20207;-73
2022/05/14 05:12:06;;;;;;;15.23;7.87;;;;;;;16.22;100.00;62536.69;5074971;28;20206;-74
2022/05/14 05:14:34;;;;;;;17.07;8.60;;;;;;;15.70;100.00;62478.66;5092454;28;20196;-72
2022/05/14 05:17:00;;;;;;;20.83;9.03;;;;;;;16.30;100.00;62547.88;5091071;28;20260;-74
2022/05/14 05:19:27;;;;;;;20.30;8.97;;;;;;;16.30;100.00;62544.78;5091033;28;20261;-74
2022/05/14 05:21:55;;;;;;;22.70;9.07;;;;;;;16.05;100.00;62518.94;5094492;28;20228;-74
2022/05/14 05:24:22;;;;;;;24.00;10.40;;;;;;;16.22;100.00;62531.03;5095130;28;20196;-74
2022/05/14 05:26:50;;;;;;;38.10;11.90;;;;;;;16.43;100.00;62558.78;5094935;28;20661;-75
2022/05/14 05:29:18;;;;;;;20.43;11.13;;;;;;;16.61;100.00;62576.16;5096041;28;20301;-74
2022/05/14 05:31:45;;;;;;;25.83;10.63;;;;;;;16.24;100.00;62538.31;5095319;28;20597;-73
2022/05/14 05:34:12;;;;;;;15.93;9.40;;;;;;;16.73;100.00;62588.56;5094848;28;20623;-76
2022/05/14 05:36:41;;;;;;;19.73;9.60;;;;;;;16.34;100.00;62546.53;5094286;28;20264;-73
2022/05/14 05:39:11;;;;;;;17.23;9.67;;;;;;;16.75;100.00;62590.72;5094211;28;20235;-74
2022/05/14 05:41:38;;;;;;;22.07;9.97;;;;;;;16.90;100.00;62614.59;5094330;28;20649;-74
2022/05/14 05:44:07;;;;;;;21.00;9.50;;;;;;;17.06;100.00;62624.13;5093995;28;20219;-74
2022/05/14 05:46:36;;;;;;;21.50;10.20;;;;;;;17.02;100.00;62619.81;5094608;28;20632;-74
2022/05/14 05:49:04;;;;;;;21.60;9.40;;;;;;;16.72;100.00;62588.00;5094335;28;20202;-75
2022/05/14 05:51:32;;;;;;;16.00;9.43;;;;;;;16.93;100.00;62610.13;5094139;28;20249;-75
2022/05/14 05:56:51;;;;;;;19.67;9.47;;;;;;;16.86;100.00;62597.44;5094254;28;20277;-75
2022/05/14 05:59:20;;;;;;;19.90;8.93;;;;;;;17.15;100.00;62633.81;5093948;28;20782;-76
2022/05/14 06:01:49;;;;;;;26.63;9.10;;;;;;;17.73;100.00;62692.75;5094681;28;20229;-75
2022/05/14 06:04:16;;;;;;;21.07;9.00;;;;;;;18.13;100.00;62741.06;5094368;28;20227;-74
2022/05/14 06:06:43;;;;;;;28.43;9.90;;;;;;;18.27;100.00;62758.75;5093841;28;20192;-74
2022/05/14 06:09:13;;;;;;;27.30;9.97;;;;;;;18.19;100.00;62744.97;5093587;28;20200;-75
2022/05/14 06:11:41;;;;;;;29.23;9.53;;;;;;;18.19;100.00;62745.50;5093819;28;20733;-73
2022/05/14 06:14:10;;;;;;;35.13;9.60;;;;;;;17.98;100.00;62724.88;5093825;28;20207;-75
2022/05/14 06:16:37;;;;;;;35.17;10.30;;;;;;;17.67;100.00;62695.09;5093812;28;20196;-74
2022/05/14 06:19:04;;;;;;;32.87;9.87;;;;;;;17.70;100.00;62698.31;5093677;28;20227;-75
2022/05/14 06:21:31;;;;;;;34.37;10.13;;;;;;;17.15;100.00;62636.41;5093463;28;20744;-75
2022/05/14 06:23:58;;;;;;;29.90;8.50;;;;;;;18.44;100.00;62777.13;5093054;28;20729;-76
2022/05/14 06:26:25;;;;;;;25.77;8.43;;;;;;;18.55;100.00;62789.53;5093558;28;20200;-74
2022/05/14 06:28:52;;;;;;;28.50;9.70;;;;;;;18.51;100.00;62785.22;5093363;28;20655;-75
2022/05/14 06:31:21;;;;;;;31.37;9.83;;;;;;;18.75;100.00;62805.44;5093162;28;20200;-74
2022/05/14 06:33:52;;;;;;;29.23;9.73;;;;;;;18.73;100.00;62803.28;5092944;28;20204;-74
2022/05/14 06:36:20;;;;;;;15.70;8.63;;;;;;;19.12;100.00;62847.97;5093311;28;20206;-73
2022/05/14 06:38:48;;;;;;;34.53;8.20;;;;;;;19.46;100.00;62886.22;5093143;28;20239;-74
2022/05/14 06:41:18;;;;;;;23.63;8.20;;;;;;;19.76;100.00;62911.41;5093317;28;20282;-74
2022/05/14 06:43:45;;;;;;;14.90;8.80;;;;;;;19.31;100.00;62865.91;5093244;28;20624;-75
2022/05/14 06:46:13;;;;;;;31.53;8.77;;;;;;;20.24;100.00;62964.84;5093168;28;20261;-74
2022/05/14 06:48:43;;;;;;;22.83;9.00;;;;;;;20.56;100.00;62999.44;5074744;28;20214;-73
2022/05/14 06:51:17;;;;;;;26.37;8.73;;;;;;;20.97;100.00;63046.94;5093039;28;20300;-74
2022/05/14 06:53:44;;;;;;;30.30;8.53;;;;;;;21.09;100.00;63061.44;5093230;28;20196;-74
2022/05/14 06:56:14;;;;;;;30.97;9.37;;;;;;;20.47;100.00;62992.84;5093183;28;20206;-74
2022/05/14 06:58:44;;;;;;;19.47;8.73;;;;;;;20.01;100.00;62940.50;5093141;28;20223;-74
2022/05/14 07:01:14;;;;;;;18.70;8.00;;;;;;;19.65;100.00;62904.16;5092792;28;20200;-74
2022/05/14 07:06:41;;;;;;;22.10;9.97;;;;;;;20.26;100.00;62964.97;5093042;28;20210;-75
2022/05/14 07:09:14;;;;;;;18.40;9.40;;;;;;;20.00;100.00;62944.59;5093039;28;20203;-73
2022/05/14 07:11:42;;;;;;;19.43;10.33;;;;;;;20.69;100.00;63014.03;5092415;28;20264;-76
2022/05/14 07:14:12;;;;;;;22.33;9.33;;;;;;;21.06;100.00;63053.00;5094803;28;20261;-74
2022/05/14 07:16:40;;;;;;;26.77;9.90;;;;;;;21.32;100.00;63081.16;5093639;28;20191;-74
2022/05/14 07:19:08;;;;;;;15.67;9.13;;;;;;;21.56;100.00;63107.13;5092467;28;20235;-73
2022/05/14 07:21:36;;;;;;;13.17;8.80;;;;;;;21.63;100.00;63115.25;5092303;28;20192;-74
2022/05/14 07:24:05;;;;;;;14.60;8.37;;;;;;;21.75;100.00;63127.72;5092337;28;20290;-74
2022/05/14 07:26:34;;;;;;;16.03;8.87;;;;;;;21.09;100.00;63056.28;5092226;28;20203;-74
2022/05/14 07:29:02;;;;;;;16.90;8.60;;;;;;;21.64;100.00;63115.78;5092125;28;20291;-76
2022/05/14 07:31:30;;;;;;;15.97;9.13;;;;;;;21.07;100.00;63056.69;5092058;28;20693;-74
2022/05/14 07:33:58;;;;;;;18.73;8.87;;;;;;;21.37;100.00;63091.75;5091993;28;20265;-74
2022/05/14 07:36:26;;;;;;;15.30;8.77;;;;;;;21.59;100.00;63110.91;5092110;28;20588;-75
2022/05/14 07:38:59;;;;;;;20.10;9.47;;;;;;;21.18;100.00;63068.59;5092318;28;20271;-74
2022/05/14 07:41:27;;;;;;;13.83;9.33;;;;;;;21.86;100.00;63134.44;5092391;28;20192;-74
2022/05/14 07:43:56;;;;;;;14.83;8.40;;;;;;;22.13;100.00;63171.47;5091724;28;20195;-76
2022/05/14 07:46:29;;;;;;;20.93;9.47;;;;;;;22.52;100.00;63211.13;5092279;28;20253;-75
2022/05/14 07:48:58;;;;;;;13.23;8.37;;;;;;;23.02;100.00;63269.44;5091953;28;20288;-74
2022/05/14 07:51:27;;;;;;;16.27;9.30;;;;;;;23.08;100.00;63270.75;5091570;28;20200;-73
2022/05/14 07:53:54;;;;;;;21.00;10.50;;;;;;;22.92;100.00;63253.41;5091880;28;20204;-75
2022/05/14 07:56:23;;;;;;;20.57;10.00;;;;;;;23.36;100.00;63306.34;5092218;28;20261;-75
2022/05/14 07:58:50;;;;;;;14.83;9.60;;;;;;;23.23;100.00;63284.41;5091738;28;20220;-75
2022/05/14 08:01:17;;;;;;;13.40;9.70;;;;;;;23.35;100.00;63302.63;5091723;28;20253;-73
2022/05/14 08:03:47;;;;;;;19.00;10.30;;;;;;;23.77;100.00;63345.03;5091717;28;20567;-76
2022/05/14 08:06:15;;;;;;;21.00;9.60;;;;;;;24.13;100.00;63384.66;5092429;28;20223;-75
2022/05/14 08:08:45;;;;;;;18.03;9.10;;;;;;;24.75;100.00;63450.91;5091745;28;20203;-74
2022/05/14 08:11:15;;;;;;;16.70;9.27;;;;;;;25.12;100.00;63491.06;5091749;28;20266;-74
2022/05/14 08:13:45;;;;;;;15.50;9.17;;;;;;;25.64;100.00;63547.56;5091511;28;20234;-73
2022/05/14 08:16:13;;;;;;;16.57;8.90;;;;;;;25.91;100.00;63576.91;5091746;28;20218;-73
2022/05/14 08:18:41;;;;;;;13.93;9.67;;;;;;;25.94;100.00;63580.16;5091695;28;20286;-74
2022/05/14 08:26:44;;;;;;;17.13;9.77;;;;;;;26.86;100.00;63678.59;5091469;28;20344;-74
2022/05/14 08:29:11;;;;;;;27.10;10.67;;;;;;;26.55;100.00;63645.41;5091436;28;20249;-76
2022/05/14 08:31:38;;;;;;;16.50;10.67;;;;;;;25.87;100.00;63574.63;5090796;28;20663;-75
2022/05/14 08:34:05;;;;;;;22.13;10.93;;;;;;;25.84;100.00;63564.06;5091257;28;20203;-74
2022/05/14 08:36:32;;;;;;;25.77;10.90;;;;;;;25.72;100.00;63556.25;5091330;28;20276;-74
2022/05/14 08:39:01;;;;;;;18.00;10.20;;;;;;;26.05;100.00;63591.56;5091109;28;20260;-74
2022/05/14 08:41:28;;;;;;;23.00;11.60;;;;;;;25.72;100.00;63555.72;5091523;28;20196;-73
2022/05/14 08:43:59;;;;;;;22.00;11.10;;;;;;;25.89;100.00;63572.13;5091067;28;20255;-76
2022/05/14 08:46:29;;;;;;;17.00;11.00;;;;;;;26.33;100.00;63621.47;5091357;28;20674;-74
2022/05/14 08:49:00;;;;;;;16.10;10.57;;;;;;;25.90;100.00;63578.44;5091150;28;20569;-75
2022/05/14 08:51:32;;;;;;;16.10;10.90;;;;;;;26.73;100.00;63667.63;5091018;28;20191;-77
2022/05/14 08:54:02;;;;;;;24.67;10.00;;;;;;;27.15;100.00;63710.69;5091377;28;20240;-74
2022/05/14 08:56:38;;;;;;;19.20;10.20;;;;;;;27.07;100.00;63701.97;5094427;28;20195;-74
2022/05/14 08:59:25;;;;;;;15.00;9.70;;;;;;;26.72;100.00;63663.91;5097608;28;20223;-75
2022/05/14 09:01:59;;;;;;;21.87;10.37;;;;;;;26.79;100.00;63671.53;5094966;28;20659;-74
2022/05/14 09:04:27;;;;;;;18.50;9.70;;;;;;;26.77;100.00;63666.72;5095579;28;20187;-74
2022/05/14 09:06:55;;;;;;;14.10;10.20;;;;;;;26.68;100.00;63665.31;5094980;28;20191;-73
2022/05/14 09:09:23;;;;;;;15.20;9.00;;;;;;;26.63;100.00;63652.03;5095036;28;20208;-74
2022/05/14 09:11:55;;;;;;;15.47;9.27;;;;;;;26.77;100.00;63669.34;5094619;28;20252;-72
2022/05/14 09:14:27;;;;;;;17.90;10.03;;;;;;;27.62;100.00;63760.75;5094740;28;20204;-75
2022/05/14 09:17:05;;;;;;;17.40;10.50;;;;;;;28.03;100.00;63802.78;5094612;28;20284;-74
2022/05/14 09:19:35;;;;;;;15.67;8.87;;;;;;;28.28;100.00;63830.53;5094927;28;20249;-75
2022/05/14 09:22:14;;;;;;;11.10;9.10;;;;;;;28.77;100.00;63885.47;5094827;28;20257;-75
2022/05/14 09:24:50;;;;;;;15.50;8.90;;;;;;;28.95;100.00;63905.63;5094971;28;20196;-73
2022/05/14 09:27:23;;;;;;;14.33;8.77;;;;;;;29.17;100.00;63929.63;5094721;28;20252;-74
2022/05/14 09:29:53;;;;;;;13.37;9.57;;;;;;;28.90;100.00;63897.00;5094359;28;20273;-74
2022/05/14 09:32:33;;;;;;;19.83;9.43;;;;;;;29.02;100.00;63913.22;5094468;28;20197;-74
2022/05/14 09:35:06;;;;;;;13.33;8.77;;;;;;;29.17;100.00;63926.44;5094390;28;20282;-74
2022/05/14 09:37:32;;;;;;;16.93;8.67;;;;;;;29.26;100.00;63940.97;5094237;28;20644;-75
2022/05/14 09:40:05;;;;;;;15.77;8.83;;;;;;;27.85;100.00;63788.94;5094387;28;20757;-73
2022/05/14 09:42:42;;;;;;;20.07;9.30;;;;;;;28.26;100.00;63830.44;5094565;28;20198;-73
2022/05/14 09:45:23;;;;;;;13.00;8.20;;;;;;;27.77;100.00;63782.31;5076121;28;20214;-74
2022/05/14 09:47:51;;;;;;;12.60;8.20;;;;;;;28.02;100.00;63804.84;5094145;28;20203;-73
2022/05/14 09:50:21;;;;;;;15.87;8.67;;;;;;;28.10;100.00;63816.19;5094098;28;20192;-74
2022/05/14 09:52:57;;;;;;;10.27;7.30;;;;;;;28.10;100.00;63815.63;5094002;28;20603;-75
2022/05/14 09:55:43;;;;;;;12.03;7.77;;;;;;;27.70;100.00;63769.44;5094082;28;20666;-74
2022/05/14 09:58:18;;;;;;;16.87;8.13;;;;;;;27.00;100.00;63697.00;5093922;28;20199;-74
2022/05/14 10:00:55;;;;;;;15.33;7.73;;;;;;;26.29;100.00;63617.13;5093878;28;20239;-74
2022/05/14 10:03:50;;;;;;;91.83;11.13;;;;;;;25.65;100.00;63551.28;5093798;28;20658;-74
2022/05/14 10:06:29;;;;;;;25.73;8.50;;;;;;;24.61;100.00;63436.22;5093745;28;20192;-74
2022/05/14 10:09:07;;;;;;;26.90;8.87;;;;;;;24.55;100.00;63429.16;5093922;28;20199;-74
2022/05/14 10:11:40;;;;;;;12.40;8.00;;;;;;;24.35;100.00;63407.47;5093847;28;20632;-73
2022/05/14 10:14:20;;;;;;;15.53;8.63;;;;;;;23.84;100.00;63352.66;5093908;28;20228;-73
2022/05/14 10:16:58;;;;;;;12.00;8.50;;;;;;;23.34;100.00;63299.50;5093904;28;20206;-74
2022/05/14 10:19:52;;;;;;;19.97;9.50;;;;;;;22.58;100.00;63217.63;5093885;28;20655;-74
2022/05/14 10:22:26;;;;;;;13.40;9.43;;;;;;;22.54;100.00;63215.88;5093146;28;20196;-74
2022/05/14 10:28:03;;;;;;;19.47;10.20;;;;;;;22.19;100.00;63177.97;5093120;28;20210;-75
2022/05/14 10:30:41;;;;;;;13.93;9.70;;;;;;;22.31;100.00;63193.56;5093228;28;20218;-74
2022/05/14 10:33:12;;;;;;;37.80;18.53;;;;;;;22.58;100.00;63217.63;5093395;28;20225;-74
2022/05/14 10:35:54;;;;;;;21.97;13.77;;;;;;;23.09;100.00;63274.97;5093283;28;20196;-74
2022/05/14 10:38:26;;;;;;;16.13;9.13;;;;;;;24.00;100.00;63365.34;5093653;28;20236;-73
2022/05/14 10:40:57;;;;;;;14.57;9.67;;;;;;;24.18;100.00;63394.75;5093069;28;20242;-74
2022/05/14 10:43:39;;;;;;;22.53;10.90;;;;;;;24.26;100.00;63401.38;5092521;28;20204;-73
2022/05/14 10:46:10;;;;;;;22.33;14.43;;;;;;;23.80;100.00;63354.06;5092947;28;20195;-75
2022/05/14 10:48:45;;;;;;;23.23;15.83;;;;;;;24.01;100.00;63371.63;5093147;28;20659;-73
2022/05/14 10:51:21;;;;;;;21.33;13.17;;;;;;;24.70;100.00;63446.00;5092906;28;20253;-74
2022/05/14 10:53:49;;;;;;;19.47;12.77;;;;;;;25.20;100.00;63499.19;5092880;28;20592;-75
2022/05/14 10:56:24;;;;;;;17.43;10.50;;;;;;;24.88;100.00;63465.56;5093075;28;20203;-73
2022/05/14 10:59:01;;;;;;;18.73;10.07;;;;;;;25.00;100.00;63475.44;5092614;28;20205;-74
2022/05/14 11:01:33;;;;;;;16.63;9.37;;;;;;;24.36;100.00;63408.53;5092719;28;20240;-75
2022/05/14 11:04:12;;;;;;;19.67;10.10;;;;;;;24.79;100.00;63455.25;5092744;28;20270;-74
2022/05/14 11:06:51;;;;;;;15.33;10.07;;;;;;;25.08;100.00;63487.25;5075012;28;20227;-75
2022/05/14 11:09:20;;;;;;;17.97;9.33;;;;;;;25.44;100.00;63531.06;5074548;28;20209;-74
2022/05/14 11:11:51;;;;;;;18.70;8.93;;;;;;;25.86;100.00;63571.47;5092492;28;20271;-75
2022/05/14 11:14:20;;;;;;;14.20;9.23;;;;;;;26.30;100.00;63618.22;5092945;28;20195;-75
2022/05/14 11:16:50;;;;;;;17.43;8.80;;;;;;;26.78;100.00;63670.44;5092682;28;20204;-74
2022/05/14 11:19:30;;;;;;;19.17;8.57;;;;;;;27.03;100.00;63697.06;5091829;28;20201;-74
2022/05/14 11:21:58;;;;;;;19.27;9.03;;;;;;;27.59;100.00;63758.56;5092366;28;20286;-75
2022/05/14 11:24:36;;;;;;;14.03;8.60;;;;;;;27.85;100.00;63785.78;5092278;28;20619;-75
2022/05/14 11:27:04;;;;;;;15.70;8.17;;;;;;;27.65;100.00;63769.25;5092444;28;20195;-73
2022/05/14 11:29:46;;;;;;;13.83;7.70;;;;;;;27.79;100.00;63777.16;5092096;28;20298;-76
2022/05/14 11:32:21;;;;;;;13.90;8.53;;;;;;;27.64;100.00;63762.94;5092238;28;20195;-74
2022/05/14 11:34:55;;;;;;;17.23;8.33;;;;;;;26.99;100.00;63698.50;5092033;28;20200;-75
2022/05/14 11:37:32;;;;;;;14.70;8.40;;;;;;;27.88;100.00;63789.03;5092248;28;20227;-74
2022/05/14 11:40:16;;;;;;;14.43;7.70;;;;;;;28.36;100.00;63843.94;5091937;28;20310;-74
2022/05/14 11:42:49;;;;;;;16.00;8.30;;;;;;;28.18;100.00;63821.72;5091860;28;20206;-75
2022/05/14 11:45:23;;;;;;;9.33;7.50;;;;;;;28.32;100.00;63836.97;5073917;28;20203;-74
2022/05/14 11:48:00;;;;;;;13.03;8.00;;;;;;;27.52;100.00;63750.97;5092150;28;20196;-74
2022/05/14 11:50:33;;;;;;;11.77;7.87;;;;;;;28.15;100.00;63821.09;5092622;28;20199;-76
2022/05/14 11:53:11;;;;;;;9.33;6.57;;;;;;;27.96;100.00;63797.78;5091935;28;20572;-74
2022/05/14 11:55:44;;;;;;;9.17;5.10;;;;;;;25.67;100.00;63561.28;5092149;28;20286;-75
2022/05/14 11:58:17;;;;;;;11.70;4.67;;;;;;;27.30;100.00;63727.00;5092057;28;20287;-75